sensor_id;sensor_type;location;lat;lon;timestamp;P1;durP1;ratioP1;P2;durP2;ratioP2
62696;SDS011;48761;42.680;23.312;2023-07-08T00:00:50;18.00;;;13.25;;
62696;SDS011;48761;42.680;23.312;2023-07-08T00:03:17;18.55;;;13.75;;
62696;SDS011;48761;42.680;23.312;2023-07-08T00:05:44;18.50;;;14.02;;
62696;SDS011;48761;42.680;23.312;2023-07-08T00:08:12;19.55;;;14.32;;
62696;SDS011;48761;42.680;23.312;2023-07-08T00:10:42;18.23;;;14.45;;
62696;SDS011;48761;42.680;23.312;2023-07-08T00:13:08;18.98;;;15.07;;
62696;SDS011;48761;42.680;23.312;2023-07-08T00:15:35;18.17;;;15.38;;
62696;SDS011;48761;42.680;23.312;2023-07-08T00:18:01;17.70;;;13.98;;
62696;SDS011;48761;42.680;23.312;2023-07-08T00:20:37;21.10;;;15.68;;
62696;SDS011;48761;42.680;23.312;2023-07-08T00:23:05;21.73;;;14.82;;
62696;SDS011;48761;42.680;23.312;2023-07-08T00:25:31;16.92;;;13.77;;
62696;SDS011;48761;42.680;23.312;2023-07-08T00:27:58;19.70;;;14.65;;
62696;SDS011;48761;42.680;23.312;2023-07-08T00:30:25;19.35;;;14.80;;
62696;SDS011;48761;42.680;23.312;2023-07-08T00:32:52;20.30;;;15.23;;
62696;SDS011;48761;42.680;23.312;2023-07-08T00:35:20;19.83;;;14.93;;
62696;SDS011;48761;42.680;23.312;2023-07-08T00:40:52;16.73;;;14.35;;
62696;SDS011;48761;42.680;23.312;2023-07-08T00:43:19;19.67;;;14.52;;
62696;SDS011;48761;42.680;23.312;2023-07-08T00:46:03;19.33;;;14.25;;
62696;SDS011;48761;42.680;23.312;2023-07-08T00:48:34;18.05;;;13.52;;
62696;SDS011;48761;42.680;23.312;2023-07-08T00:51:00;21.30;;;14.30;;
62696;SDS011;48761;42.680;23.312;2023-07-08T00:53:34;21.42;;;14.48;;
62696;SDS011;48761;42.680;23.312;2023-07-08T00:56:06;16.80;;;13.32;;
62696;SDS011;48761;42.680;23.312;2023-07-08T00:58:47;18.42;;;13.73;;
62696;SDS011;48761;42.680;23.312;2023-07-08T01:01:17;15.38;;;12.82;;
62696;SDS011;48761;42.680;23.312;2023-07-08T01:03:52;15.85;;;13.13;;
62696;SDS011;48761;42.680;23.312;2023-07-08T01:06:23;16.02;;;13.10;;
62696;SDS011;48761;42.680;23.312;2023-07-08T01:08:51;17.95;;;13.50;;
62696;SDS011;48761;42.680;23.312;2023-07-08T01:11:17;19.92;;;13.98;;
62696;SDS011;48761;42.680;23.312;2023-07-08T01:13:45;15.75;;;13.68;;
62696;SDS011;48761;42.680;23.312;2023-07-08T01:16:12;19.83;;;13.43;;
62696;SDS011;48761;42.680;23.312;2023-07-08T01:18:40;16.02;;;13.43;;
62696;SDS011;48761;42.680;23.312;2023-07-08T01:21:27;14.82;;;13.15;;
62696;SDS011;48761;42.680;23.312;2023-07-08T01:23:56;14.88;;;12.38;;
62696;SDS011;48761;42.680;23.312;2023-07-08T01:26:23;17.05;;;13.70;;
62696;SDS011;48761;42.680;23.312;2023-07-08T01:28:53;17.67;;;13.20;;
62696;SDS011;48761;42.680;23.312;2023-07-08T01:31:21;17.00;;;12.80;;
62696;SDS011;48761;42.680;23.312;2023-07-08T01:33:49;17.35;;;13.70;;
62696;SDS011;48761;42.680;23.312;2023-07-08T01:36:15;18.80;;;14.63;;
62696;SDS011;48761;42.680;23.312;2023-07-08T01:38:41;20.48;;;14.25;;
62696;SDS011;48761;42.680;23.312;2023-07-08T01:41:10;18.20;;;12.52;;
62696;SDS011;48761;42.680;23.312;2023-07-08T01:43:38;16.05;;;12.65;;
62696;SDS011;48761;42.680;23.312;2023-07-08T01:46:04;14.48;;;12.13;;
62696;SDS011;48761;42.680;23.312;2023-07-08T01:48:41;19.35;;;12.52;;
62696;SDS011;48761;42.680;23.312;2023-07-08T01:51:12;15.00;;;12.13;;
62696;SDS011;48761;42.680;23.312;2023-07-08T01:53:38;18.90;;;13.43;;
62696;SDS011;48761;42.680;23.312;2023-07-08T01:56:07;16.23;;;12.18;;
62696;SDS011;48761;42.680;23.312;2023-07-08T01:58:34;16.50;;;12.13;;
62696;SDS011;48761;42.680;23.312;2023-07-08T02:01:00;15.00;;;12.35;;
62696;SDS011;48761;42.680;23.312;2023-07-08T02:03:26;17.15;;;12.65;;
62696;SDS011;48761;42.680;23.312;2023-07-08T02:05:53;13.40;;;11.38;;
62696;SDS011;48761;42.680;23.312;2023-07-08T02:08:19;14.35;;;11.23;;
62696;SDS011;48761;42.680;23.312;2023-07-08T02:10:51;17.95;;;11.88;;
62696;SDS011;48761;42.680;23.312;2023-07-08T02:13:19;17.33;;;11.25;;
62696;SDS011;48761;42.680;23.312;2023-07-08T02:15:45;17.25;;;11.70;;
62696;SDS011;48761;42.680;23.312;2023-07-08T02:18:11;13.98;;;11.73;;
62696;SDS011;48761;42.680;23.312;2023-07-08T02:20:37;18.20;;;11.48;;
62696;SDS011;48761;42.680;23.312;2023-07-08T02:23:03;12.38;;;11.07;;
62696;SDS011;48761;42.680;23.312;2023-07-08T02:25:29;13.40;;;11.50;;
62696;SDS011;48761;42.680;23.312;2023-07-08T02:27:55;19.45;;;11.75;;
62696;SDS011;48761;42.680;23.312;2023-07-08T02:30:21;13.18;;;11.23;;
62696;SDS011;48761;42.680;23.312;2023-07-08T02:32:48;16.90;;;11.88;;
62696;SDS011;48761;42.680;23.312;2023-07-08T02:35:14;13.98;;;11.80;;
62696;SDS011;48761;42.680;23.312;2023-07-08T02:37:40;15.98;;;11.95;;
62696;SDS011;48761;42.680;23.312;2023-07-08T02:40:06;14.85;;;11.90;;
62696;SDS011;48761;42.680;23.312;2023-07-08T02:42:32;17.05;;;12.93;;
62696;SDS011;48761;42.680;23.312;2023-07-08T02:44:58;18.58;;;12.27;;
62696;SDS011;48761;42.680;23.312;2023-07-08T02:47:25;15.18;;;12.50;;
62696;SDS011;48761;42.680;23.312;2023-07-08T02:49:51;18.25;;;12.65;;
62696;SDS011;48761;42.680;23.312;2023-07-08T02:52:17;14.90;;;12.45;;
62696;SDS011;48761;42.680;23.312;2023-07-08T02:54:43;12.98;;;11.32;;
62696;SDS011;48761;42.680;23.312;2023-07-08T02:57:09;15.55;;;12.30;;
62696;SDS011;48761;42.680;23.312;2023-07-08T02:59:35;14.55;;;12.07;;
62696;SDS011;48761;42.680;23.312;2023-07-08T03:02:01;20.35;;;13.18;;
62696;SDS011;48761;42.680;23.312;2023-07-08T03:04:27;14.38;;;12.07;;
62696;SDS011;48761;42.680;23.312;2023-07-08T03:06:53;20.13;;;12.73;;
62696;SDS011;48761;42.680;23.312;2023-07-08T03:09:18;16.92;;;12.02;;
62696;SDS011;48761;42.680;23.312;2023-07-08T03:11:44;13.80;;;11.70;;
62696;SDS011;48761;42.680;23.312;2023-07-08T03:14:10;13.88;;;10.73;;
62696;SDS011;48761;42.680;23.312;2023-07-08T03:16:36;16.00;;;12.07;;
62696;SDS011;48761;42.680;23.312;2023-07-08T03:19:02;16.48;;;12.38;;
62696;SDS011;48761;42.680;23.312;2023-07-08T03:21:28;15.38;;;11.98;;
62696;SDS011;48761;42.680;23.312;2023-07-08T03:23:54;16.35;;;11.13;;
62696;SDS011;48761;42.680;23.312;2023-07-08T03:26:24;14.02;;;10.23;;
62696;SDS011;48761;42.680;23.312;2023-07-08T03:28:51;16.52;;;9.98;;
62696;SDS011;48761;42.680;23.312;2023-07-08T03:31:17;12.70;;;9.90;;
62696;SDS011;48761;42.680;23.312;2023-07-08T03:33:43;13.27;;;9.95;;
62696;SDS011;48761;42.680;23.312;2023-07-08T03:36:17;13.02;;;9.77;;
62696;SDS011;48761;42.680;23.312;2023-07-08T03:38:44;13.30;;;9.98;;
62696;SDS011;48761;42.680;23.312;2023-07-08T03:41:10;12.20;;;9.60;;
62696;SDS011;48761;42.680;23.312;2023-07-08T03:43:36;10.98;;;9.25;;
62696;SDS011;48761;42.680;23.312;2023-07-08T03:46:01;14.98;;;9.25;;
62696;SDS011;48761;42.680;23.312;2023-07-08T03:48:27;11.93;;;9.65;;
62696;SDS011;48761;42.680;23.312;2023-07-08T03:50:53;12.85;;;9.90;;
62696;SDS011;48761;42.680;23.312;2023-07-08T03:53:19;13.85;;;9.13;;
62696;SDS011;48761;42.680;23.312;2023-07-08T03:55:45;16.60;;;10.70;;
62696;SDS011;48761;42.680;23.312;2023-07-08T03:58:11;13.52;;;11.27;;
62696;SDS011;48761;42.680;23.312;2023-07-08T04:00:37;13.00;;;10.35;;
62696;SDS011;48761;42.680;23.312;2023-07-08T04:03:03;11.63;;;8.50;;
62696;SDS011;48761;42.680;23.312;2023-07-08T04:05:29;14.27;;;9.07;;
62696;SDS011;48761;42.680;23.312;2023-07-08T04:07:55;12.25;;;8.35;;
62696;SDS011;48761;42.680;23.312;2023-07-08T04:10:21;11.48;;;8.38;;
62696;SDS011;48761;42.680;23.312;2023-07-08T04:12:46;17.20;;;12.98;;
62696;SDS011;48761;42.680;23.312;2023-07-08T04:15:12;18.83;;;10.23;;
62696;SDS011;48761;42.680;23.312;2023-07-08T04:17:41;16.63;;;11.82;;
62696;SDS011;48761;42.680;23.312;2023-07-08T04:20:11;14.45;;;10.52;;
62696;SDS011;48761;42.680;23.312;2023-07-08T04:22:40;17.02;;;12.70;;
62696;SDS011;48761;42.680;23.312;2023-07-08T04:25:06;16.55;;;11.57;;
62696;SDS011;48761;42.680;23.312;2023-07-08T04:27:33;15.13;;;11.00;;
62696;SDS011;48761;42.680;23.312;2023-07-08T04:29:59;15.52;;;11.55;;
62696;SDS011;48761;42.680;23.312;2023-07-08T04:32:24;16.67;;;11.88;;
62696;SDS011;48761;42.680;23.312;2023-07-08T04:34:51;14.13;;;10.45;;
62696;SDS011;48761;42.680;23.312;2023-07-08T04:37:17;16.08;;;10.75;;
62696;SDS011;48761;42.680;23.312;2023-07-08T04:39:43;14.77;;;10.30;;
62696;SDS011;48761;42.680;23.312;2023-07-08T04:42:09;12.70;;;8.23;;
62696;SDS011;48761;42.680;23.312;2023-07-08T04:44:35;20.70;;;13.98;;
62696;SDS011;48761;42.680;23.312;2023-07-08T04:47:01;12.57;;;9.10;;
62696;SDS011;48761;42.680;23.312;2023-07-08T04:49:26;14.65;;;9.85;;
62696;SDS011;48761;42.680;23.312;2023-07-08T04:51:52;14.13;;;8.00;;
62696;SDS011;48761;42.680;23.312;2023-07-08T04:54:18;9.65;;;7.60;;
62696;SDS011;48761;42.680;23.312;2023-07-08T04:56:47;16.75;;;13.32;;
62696;SDS011;48761;42.680;23.312;2023-07-08T04:59:17;11.80;;;8.40;;
62696;SDS011;48761;42.680;23.312;2023-07-08T05:01:44;10.63;;;7.85;;
62696;SDS011;48761;42.680;23.312;2023-07-08T05:04:12;13.40;;;9.35;;
62696;SDS011;48761;42.680;23.312;2023-07-08T05:06:39;13.60;;;8.07;;
62696;SDS011;48761;42.680;23.312;2023-07-08T05:09:05;19.35;;;14.20;;
62696;SDS011;48761;42.680;23.312;2023-07-08T05:11:31;11.13;;;8.00;;
62696;SDS011;48761;42.680;23.312;2023-07-08T05:13:57;12.48;;;8.70;;
62696;SDS011;48761;42.680;23.312;2023-07-08T05:16:23;13.02;;;8.93;;
62696;SDS011;48761;42.680;23.312;2023-07-08T05:18:49;11.88;;;8.13;;
62696;SDS011;48761;42.680;23.312;2023-07-08T05:21:15;12.05;;;9.07;;
62696;SDS011;48761;42.680;23.312;2023-07-08T05:23:43;11.27;;;8.60;;
62696;SDS011;48761;42.680;23.312;2023-07-08T05:26:09;10.38;;;7.65;;
62696;SDS011;48761;42.680;23.312;2023-07-08T05:28:35;10.15;;;8.23;;
62696;SDS011;48761;42.680;23.312;2023-07-08T05:31:01;10.40;;;7.82;;
62696;SDS011;48761;42.680;23.312;2023-07-08T05:33:28;10.10;;;7.40;;
62696;SDS011;48761;42.680;23.312;2023-07-08T05:35:55;13.38;;;9.15;;
62696;SDS011;48761;42.680;23.312;2023-07-08T05:38:21;15.20;;;7.80;;
62696;SDS011;48761;42.680;23.312;2023-07-08T05:40:49;12.32;;;7.25;;
62696;SDS011;48761;42.680;23.312;2023-07-08T05:43:17;12.50;;;7.53;;
62696;SDS011;48761;42.680;23.312;2023-07-08T05:45:43;18.92;;;14.20;;
62696;SDS011;48761;42.680;23.312;2023-07-08T05:48:10;12.25;;;8.77;;
62696;SDS011;48761;42.680;23.312;2023-07-08T05:50:36;14.10;;;7.60;;
62696;SDS011;48761;42.680;23.312;2023-07-08T05:53:02;9.55;;;7.30;;
62696;SDS011;48761;42.680;23.312;2023-07-08T05:55:28;11.48;;;7.55;;
62696;SDS011;48761;42.680;23.312;2023-07-08T05:57:54;10.73;;;8.40;;
62696;SDS011;48761;42.680;23.312;2023-07-08T06:00:20;11.23;;;8.07;;
62696;SDS011;48761;42.680;23.312;2023-07-08T06:02:46;9.80;;;7.18;;
62696;SDS011;48761;42.680;23.312;2023-07-08T06:05:12;13.13;;;8.65;;
62696;SDS011;48761;42.680;23.312;2023-07-08T06:07:38;15.60;;;10.60;;
62696;SDS011;48761;42.680;23.312;2023-07-08T06:10:04;13.85;;;8.23;;
62696;SDS011;48761;42.680;23.312;2023-07-08T06:12:30;16.73;;;11.45;;
62696;SDS011;48761;42.680;23.312;2023-07-08T06:14:56;11.90;;;8.80;;
62696;SDS011;48761;42.680;23.312;2023-07-08T06:17:22;9.23;;;7.47;;
62696;SDS011;48761;42.680;23.312;2023-07-08T06:19:48;17.25;;;10.65;;
62696;SDS011;48761;42.680;23.312;2023-07-08T06:22:14;17.48;;;8.50;;
62696;SDS011;48761;42.680;23.312;2023-07-08T06:24:40;9.75;;;8.00;;
62696;SDS011;48761;42.680;23.312;2023-07-08T06:27:06;12.00;;;8.57;;
62696;SDS011;48761;42.680;23.312;2023-07-08T06:29:33;12.00;;;9.90;;
62696;SDS011;48761;42.680;23.312;2023-07-08T06:32:00;15.15;;;7.93;;
62696;SDS011;48761;42.680;23.312;2023-07-08T06:34:26;11.75;;;8.07;;
62696;SDS011;48761;42.680;23.312;2023-07-08T06:36:52;15.75;;;8.38;;
62696;SDS011;48761;42.680;23.312;2023-07-08T06:39:18;10.38;;;7.47;;
62696;SDS011;48761;42.680;23.312;2023-07-08T06:41:44;10.60;;;7.78;;
62696;SDS011;48761;42.680;23.312;2023-07-08T06:44:10;10.65;;;8.43;;
62696;SDS011;48761;42.680;23.312;2023-07-08T06:46:36;12.45;;;9.70;;
62696;SDS011;48761;42.680;23.312;2023-07-08T06:49:02;14.55;;;8.77;;
62696;SDS011;48761;42.680;23.312;2023-07-08T06:51:28;11.57;;;8.70;;
62696;SDS011;48761;42.680;23.312;2023-07-08T06:53:54;13.07;;;7.88;;
62696;SDS011;48761;42.680;23.312;2023-07-08T06:56:20;12.35;;;7.80;;
62696;SDS011;48761;42.680;23.312;2023-07-08T06:58:46;14.38;;;8.93;;
62696;SDS011;48761;42.680;23.312;2023-07-08T07:01:12;11.05;;;7.75;;
62696;SDS011;48761;42.680;23.312;2023-07-08T07:03:39;10.35;;;7.05;;
62696;SDS011;48761;42.680;23.312;2023-07-08T07:06:05;9.85;;;6.60;;
62696;SDS011;48761;42.680;23.312;2023-07-08T07:08:31;10.05;;;6.57;;
62696;SDS011;48761;42.680;23.312;2023-07-08T07:10:56;11.80;;;7.10;;
62696;SDS011;48761;42.680;23.312;2023-07-08T07:13:22;9.82;;;7.10;;
62696;SDS011;48761;42.680;23.312;2023-07-08T07:15:48;9.98;;;6.22;;
62696;SDS011;48761;42.680;23.312;2023-07-08T07:18:15;11.93;;;6.50;;
62696;SDS011;48761;42.680;23.312;2023-07-08T07:20:46;11.35;;;6.45;;
62696;SDS011;48761;42.680;23.312;2023-07-08T07:23:16;10.40;;;7.20;;
62696;SDS011;48761;42.680;23.312;2023-07-08T07:25:42;10.70;;;7.05;;
62696;SDS011;48761;42.680;23.312;2023-07-08T07:28:08;11.80;;;7.70;;
62696;SDS011;48761;42.680;23.312;2023-07-08T07:30:34;9.95;;;6.93;;
62696;SDS011;48761;42.680;23.312;2023-07-08T07:33:00;7.88;;;6.60;;
62696;SDS011;48761;42.680;23.312;2023-07-08T07:35:27;10.55;;;7.40;;
62696;SDS011;48761;42.680;23.312;2023-07-08T07:37:53;11.90;;;8.27;;
62696;SDS011;48761;42.680;23.312;2023-07-08T07:40:19;11.38;;;6.70;;
62696;SDS011;48761;42.680;23.312;2023-07-08T07:42:45;9.98;;;6.68;;
62696;SDS011;48761;42.680;23.312;2023-07-08T07:45:12;11.85;;;7.03;;
62696;SDS011;48761;42.680;23.312;2023-07-08T07:47:39;11.32;;;7.78;;
62696;SDS011;48761;42.680;23.312;2023-07-08T07:50:05;8.82;;;7.63;;
62696;SDS011;48761;42.680;23.312;2023-07-08T07:52:33;11.23;;;7.63;;
62696;SDS011;48761;42.680;23.312;2023-07-08T07:54:59;13.68;;;6.75;;
62696;SDS011;48761;42.680;23.312;2023-07-08T07:57:26;14.55;;;6.65;;
62696;SDS011;48761;42.680;23.312;2023-07-08T07:59:52;14.43;;;7.93;;
62696;SDS011;48761;42.680;23.312;2023-07-08T08:02:18;7.85;;;6.28;;
62696;SDS011;48761;42.680;23.312;2023-07-08T08:04:44;9.40;;;6.88;;
62696;SDS011;48761;42.680;23.312;2023-07-08T08:07:10;8.88;;;6.60;;
62696;SDS011;48761;42.680;23.312;2023-07-08T08:09:37;10.57;;;6.70;;
62696;SDS011;48761;42.680;23.312;2023-07-08T08:12:03;10.15;;;7.68;;
62696;SDS011;48761;42.680;23.312;2023-07-08T08:14:30;10.73;;;7.93;;
62696;SDS011;48761;42.680;23.312;2023-07-08T08:16:56;9.88;;;6.43;;
62696;SDS011;48761;42.680;23.312;2023-07-08T08:19:22;9.55;;;6.68;;
62696;SDS011;48761;42.680;23.312;2023-07-08T08:21:48;11.45;;;7.50;;
62696;SDS011;48761;42.680;23.312;2023-07-08T08:24:14;8.88;;;6.68;;
62696;SDS011;48761;42.680;23.312;2023-07-08T08:26:40;10.70;;;7.70;;
62696;SDS011;48761;42.680;23.312;2023-07-08T08:29:06;11.38;;;7.75;;
62696;SDS011;48761;42.680;23.312;2023-07-08T08:31:32;9.23;;;7.38;;
62696;SDS011;48761;42.680;23.312;2023-07-08T08:33:58;13.88;;;6.95;;
62696;SDS011;48761;42.680;23.312;2023-07-08T08:36:24;12.30;;;6.72;;
62696;SDS011;48761;42.680;23.312;2023-07-08T08:38:50;11.63;;;8.07;;
62696;SDS011;48761;42.680;23.312;2023-07-08T08:41:17;8.43;;;6.70;;
62696;SDS011;48761;42.680;23.312;2023-07-08T08:43:45;8.93;;;7.57;;
62696;SDS011;48761;42.680;23.312;2023-07-08T08:49:04;7.65;;;6.47;;
62696;SDS011;48761;42.680;23.312;2023-07-08T08:51:39;13.25;;;7.50;;
62696;SDS011;48761;42.680;23.312;2023-07-08T08:54:07;10.50;;;7.13;;
62696;SDS011;48761;42.680;23.312;2023-07-08T08:56:39;12.93;;;6.80;;
62696;SDS011;48761;42.680;23.312;2023-07-08T09:01:55;9.13;;;7.22;;
62696;SDS011;48761;42.680;23.312;2023-07-08T09:04:24;11.63;;;7.55;;
62696;SDS011;48761;42.680;23.312;2023-07-08T09:06:58;11.63;;;8.35;;
62696;SDS011;48761;42.680;23.312;2023-07-08T09:09:34;10.60;;;6.90;;
62696;SDS011;48761;42.680;23.312;2023-07-08T09:12:06;8.73;;;6.57;;
62696;SDS011;48761;42.680;23.312;2023-07-08T09:14:42;8.98;;;6.68;;
62696;SDS011;48761;42.680;23.312;2023-07-08T09:17:19;8.75;;;7.07;;
62696;SDS011;48761;42.680;23.312;2023-07-08T09:22:28;11.30;;;7.00;;
62696;SDS011;48761;42.680;23.312;2023-07-08T09:27:54;8.93;;;5.88;;
62696;SDS011;48761;42.680;23.312;2023-07-08T09:30:21;14.80;;;6.50;;
62696;SDS011;48761;42.680;23.312;2023-07-08T09:32:48;10.90;;;7.47;;
62696;SDS011;48761;42.680;23.312;2023-07-08T09:35:22;8.63;;;5.78;;
62696;SDS011;48761;42.680;23.312;2023-07-08T09:37:53;8.32;;;6.05;;
62696;SDS011;48761;42.680;23.312;2023-07-08T09:40:28;10.55;;;5.75;;
62696;SDS011;48761;42.680;23.312;2023-07-08T09:43:42;10.80;;;5.68;;
62696;SDS011;48761;42.680;23.312;2023-07-08T09:45:45;12.65;;;6.05;;
62696;SDS011;48761;42.680;23.312;2023-07-08T09:48:29;8.10;;;6.00;;
62696;SDS011;48761;42.680;23.312;2023-07-08T09:50:59;7.53;;;5.63;;
62696;SDS011;48761;42.680;23.312;2023-07-08T09:53:25;7.50;;;6.00;;
62696;SDS011;48761;42.680;23.312;2023-07-08T09:55:52;10.00;;;6.03;;
62696;SDS011;48761;42.680;23.312;2023-07-08T09:58:21;10.65;;;6.70;;
62696;SDS011;48761;42.680;23.312;2023-07-08T10:03:22;10.55;;;5.78;;
62696;SDS011;48761;42.680;23.312;2023-07-08T10:05:51;6.68;;;5.00;;
62696;SDS011;48761;42.680;23.312;2023-07-08T10:08:21;11.43;;;6.07;;
62696;SDS011;48761;42.680;23.312;2023-07-08T10:10:58;9.30;;;5.35;;
62696;SDS011;48761;42.680;23.312;2023-07-08T10:13:41;9.13;;;6.63;;
62696;SDS011;48761;42.680;23.312;2023-07-08T10:18:41;7.43;;;5.00;;
62696;SDS011;48761;42.680;23.312;2023-07-08T10:29:01;8.25;;;5.93;;
62696;SDS011;48761;42.680;23.312;2023-07-08T10:31:45;12.15;;;5.63;;
62696;SDS011;48761;42.680;23.312;2023-07-08T10:34:25;6.32;;;4.68;;
62696;SDS011;48761;42.680;23.312;2023-07-08T10:37:07;7.72;;;5.50;;
62696;SDS011;48761;42.680;23.312;2023-07-08T10:55:48;9.25;;;5.30;;
62696;SDS011;48761;42.680;23.312;2023-07-08T10:58:20;8.02;;;4.95;;
62696;SDS011;48761;42.680;23.312;2023-07-08T11:00:56;8.60;;;5.13;;
62696;SDS011;48761;42.680;23.312;2023-07-08T11:06:09;10.70;;;5.65;;
62696;SDS011;48761;42.680;23.312;2023-07-08T11:08:56;7.15;;;5.22;;
62696;SDS011;48761;42.680;23.312;2023-07-08T11:14:13;8.48;;;4.95;;
62696;SDS011;48761;42.680;23.312;2023-07-08T11:16:52;7.33;;;4.63;;
62696;SDS011;48761;42.680;23.312;2023-07-08T11:20:07;7.00;;;5.45;;
62696;SDS011;48761;42.680;23.312;2023-07-08T11:22:33;7.03;;;5.90;;
62696;SDS011;48761;42.680;23.312;2023-07-08T11:25:02;8.50;;;4.93;;
62696;SDS011;48761;42.680;23.312;2023-07-08T11:27:32;8.77;;;5.72;;
62696;SDS011;48761;42.680;23.312;2023-07-08T11:30:06;7.57;;;5.53;;
62696;SDS011;48761;42.680;23.312;2023-07-08T11:32:39;8.02;;;4.82;;
62696;SDS011;48761;42.680;23.312;2023-07-08T11:35:12;9.60;;;5.13;;
62696;SDS011;48761;42.680;23.312;2023-07-08T11:37:52;11.80;;;6.10;;
62696;SDS011;48761;42.680;23.312;2023-07-08T11:40:21;6.55;;;5.03;;
62696;SDS011;48761;42.680;23.312;2023-07-08T11:42:49;5.30;;;4.80;;
62696;SDS011;48761;42.680;23.312;2023-07-08T11:47:46;6.47;;;4.90;;
62696;SDS011;48761;42.680;23.312;2023-07-08T11:50:21;6.47;;;4.30;;
62696;SDS011;48761;42.680;23.312;2023-07-08T11:52:51;5.78;;;4.65;;
62696;SDS011;48761;42.680;23.312;2023-07-08T11:55:35;7.45;;;4.88;;
62696;SDS011;48761;42.680;23.312;2023-07-08T11:58:21;8.80;;;5.68;;
62696;SDS011;48761;42.680;23.312;2023-07-08T12:00:58;6.85;;;4.55;;
62696;SDS011;48761;42.680;23.312;2023-07-08T12:03:36;5.72;;;4.15;;
62696;SDS011;48761;42.680;23.312;2023-07-08T12:08:52;7.35;;;4.07;;
62696;SDS011;48761;42.680;23.312;2023-07-08T12:11:38;5.90;;;4.32;;
62696;SDS011;48761;42.680;23.312;2023-07-08T12:14:04;5.82;;;4.32;;
62696;SDS011;48761;42.680;23.312;2023-07-08T12:16:31;5.28;;;4.25;;
62696;SDS011;48761;42.680;23.312;2023-07-08T12:18:58;7.55;;;4.57;;
62696;SDS011;48761;42.680;23.312;2023-07-08T12:21:26;5.75;;;4.00;;
62696;SDS011;48761;42.680;23.312;2023-07-08T12:23:53;9.25;;;4.00;;
62696;SDS011;48761;42.680;23.312;2023-07-08T12:26:20;5.90;;;3.90;;
62696;SDS011;48761;42.680;23.312;2023-07-08T12:28:47;6.10;;;4.90;;
62696;SDS011;48761;42.680;23.312;2023-07-08T12:31:15;7.38;;;4.70;;
62696;SDS011;48761;42.680;23.312;2023-07-08T12:33:43;9.43;;;4.35;;
62696;SDS011;48761;42.680;23.312;2023-07-08T12:36:10;6.30;;;4.07;;
62696;SDS011;48761;42.680;23.312;2023-07-08T12:38:40;6.93;;;4.10;;
62696;SDS011;48761;42.680;23.312;2023-07-08T12:41:09;7.65;;;3.97;;
62696;SDS011;48761;42.680;23.312;2023-07-08T12:43:40;4.75;;;3.90;;
62696;SDS011;48761;42.680;23.312;2023-07-08T12:46:08;4.68;;;3.65;;
62696;SDS011;48761;42.680;23.312;2023-07-08T12:48:36;7.15;;;3.90;;
62696;SDS011;48761;42.680;23.312;2023-07-08T12:51:03;6.97;;;4.30;;
62696;SDS011;48761;42.680;23.312;2023-07-08T12:53:30;10.27;;;4.18;;
62696;SDS011;48761;42.680;23.312;2023-07-08T12:55:58;7.05;;;3.50;;
62696;SDS011;48761;42.680;23.312;2023-07-08T12:58:27;10.38;;;4.40;;
62696;SDS011;48761;42.680;23.312;2023-07-08T13:00:55;7.13;;;3.80;;
62696;SDS011;48761;42.680;23.312;2023-07-08T13:03:24;7.43;;;5.82;;
62696;SDS011;48761;42.680;23.312;2023-07-08T13:05:52;7.18;;;4.25;;
62696;SDS011;48761;42.680;23.312;2023-07-08T13:08:21;26.88;;;19.10;;
62696;SDS011;48761;42.680;23.312;2023-07-08T13:10:55;7.63;;;4.28;;
62696;SDS011;48761;42.680;23.312;2023-07-08T13:13:30;8.70;;;4.05;;
62696;SDS011;48761;42.680;23.312;2023-07-08T13:15:59;5.68;;;3.88;;
62696;SDS011;48761;42.680;23.312;2023-07-08T13:18:31;7.10;;;5.35;;
62696;SDS011;48761;42.680;23.312;2023-07-08T13:21:02;6.68;;;3.72;;
62696;SDS011;48761;42.680;23.312;2023-07-08T13:23:30;4.50;;;3.67;;
62696;SDS011;48761;42.680;23.312;2023-07-08T13:25:56;8.15;;;4.30;;
62696;SDS011;48761;42.680;23.312;2023-07-08T13:28:28;7.43;;;4.78;;
62696;SDS011;48761;42.680;23.312;2023-07-08T13:31:01;7.75;;;4.60;;
62696;SDS011;48761;42.680;23.312;2023-07-08T13:33:37;6.28;;;3.97;;
62696;SDS011;48761;42.680;23.312;2023-07-08T13:36:04;9.10;;;4.20;;
62696;SDS011;48761;42.680;23.312;2023-07-08T13:38:34;6.95;;;3.78;;
62696;SDS011;48761;42.680;23.312;2023-07-08T13:41:04;6.68;;;4.10;;
62696;SDS011;48761;42.680;23.312;2023-07-08T13:43:33;13.45;;;8.07;;
62696;SDS011;48761;42.680;23.312;2023-07-08T13:46:04;5.13;;;3.50;;
62696;SDS011;48761;42.680;23.312;2023-07-08T13:48:33;5.20;;;3.40;;
62696;SDS011;48761;42.680;23.312;2023-07-08T13:51:07;14.27;;;8.75;;
62696;SDS011;48761;42.680;23.312;2023-07-08T13:58:44;9.88;;;6.30;;
62696;SDS011;48761;42.680;23.312;2023-07-08T14:01:19;5.55;;;3.60;;
62696;SDS011;48761;42.680;23.312;2023-07-08T14:03:47;8.52;;;4.55;;
62696;SDS011;48761;42.680;23.312;2023-07-08T14:06:16;7.53;;;4.80;;
62696;SDS011;48761;42.680;23.312;2023-07-08T14:08:44;4.43;;;3.15;;
62696;SDS011;48761;42.680;23.312;2023-07-08T14:11:10;8.13;;;4.82;;
62696;SDS011;48761;42.680;23.312;2023-07-08T14:13:36;5.15;;;4.18;;
62696;SDS011;48761;42.680;23.312;2023-07-08T14:16:02;6.45;;;4.65;;
62696;SDS011;48761;42.680;23.312;2023-07-08T14:18:31;6.00;;;4.03;;
62696;SDS011;48761;42.680;23.312;2023-07-08T14:20:58;7.05;;;3.70;;
62696;SDS011;48761;42.680;23.312;2023-07-08T14:23:24;5.53;;;3.47;;
62696;SDS011;48761;42.680;23.312;2023-07-08T14:25:50;5.88;;;4.50;;
62696;SDS011;48761;42.680;23.312;2023-07-08T14:28:15;6.13;;;4.45;;
62696;SDS011;48761;42.680;23.312;2023-07-08T14:30:43;9.60;;;6.97;;
62696;SDS011;48761;42.680;23.312;2023-07-08T14:33:11;7.47;;;4.10;;
62696;SDS011;48761;42.680;23.312;2023-07-08T14:35:37;4.82;;;3.78;;
62696;SDS011;48761;42.680;23.312;2023-07-08T14:38:09;11.18;;;6.72;;
62696;SDS011;48761;42.680;23.312;2023-07-08T14:40:37;4.57;;;3.60;;
62696;SDS011;48761;42.680;23.312;2023-07-08T14:43:10;7.93;;;3.30;;
62696;SDS011;48761;42.680;23.312;2023-07-08T14:45:41;8.85;;;4.43;;
62696;SDS011;48761;42.680;23.312;2023-07-08T14:48:11;7.65;;;4.15;;
62696;SDS011;48761;42.680;23.312;2023-07-08T14:50:38;5.40;;;3.40;;
62696;SDS011;48761;42.680;23.312;2023-07-08T14:53:05;6.88;;;4.45;;
62696;SDS011;48761;42.680;23.312;2023-07-08T14:55:31;10.02;;;4.10;;
62696;SDS011;48761;42.680;23.312;2023-07-08T14:57:57;6.22;;;3.72;;
62696;SDS011;48761;42.680;23.312;2023-07-08T15:00:23;9.38;;;3.95;;
62696;SDS011;48761;42.680;23.312;2023-07-08T15:02:50;10.43;;;6.50;;
62696;SDS011;48761;42.680;23.312;2023-07-08T15:05:18;6.15;;;3.75;;
62696;SDS011;48761;42.680;23.312;2023-07-08T15:07:52;9.30;;;5.18;;
62696;SDS011;48761;42.680;23.312;2023-07-08T15:10:20;5.57;;;3.42;;
62696;SDS011;48761;42.680;23.312;2023-07-08T15:12:49;14.57;;;8.05;;
62696;SDS011;48761;42.680;23.312;2023-07-08T15:15:16;7.85;;;3.92;;
62696;SDS011;48761;42.680;23.312;2023-07-08T15:17:48;7.38;;;5.10;;
62696;SDS011;48761;42.680;23.312;2023-07-08T15:20:14;9.95;;;4.38;;
62696;SDS011;48761;42.680;23.312;2023-07-08T15:22:41;14.20;;;9.10;;
62696;SDS011;48761;42.680;23.312;2023-07-08T15:25:09;12.30;;;9.93;;
62696;SDS011;48761;42.680;23.312;2023-07-08T15:27:36;6.97;;;4.32;;
62696;SDS011;48761;42.680;23.312;2023-07-08T15:30:02;7.70;;;4.70;;